createdAt,value
2018-11-25T00:02:26.907Z,100407.86
2018-11-25T00:05:00.879Z,100413.31
2018-11-25T00:07:35.879Z,100412.87
2018-11-25T00:11:13.407Z,100406.96
2018-11-25T00:13:47.394Z,100409.92
2018-11-25T00:16:21.386Z,100409.52
2018-11-25T00:18:55.421Z,100416.27
2018-11-25T00:21:29.374Z,100416.23
2018-11-25T00:24:03.362Z,100414.16
2018-11-25T00:26:37.187Z,100414.17
2018-11-25T00:29:11.118Z,100414.98
2018-11-25T00:31:44.965Z,100412.55
2018-11-25T00:34:18.888Z,100410.40
2018-11-25T00:36:52.757Z,100415.86
2018-11-25T00:39:26.959Z,100417.50
2018-11-25T00:42:00.822Z,100419.22
2018-11-25T00:44:35.056Z,100420.48
2018-11-25T00:47:08.902Z,100415.38
2018-11-25T00:49:42.785Z,100412.06
2018-11-25T00:52:16.649Z,100410.34
2018-11-25T00:54:50.629Z,100401.08
2018-11-25T00:57:24.457Z,100400.22
2018-11-25T00:59:58.441Z,100395.15
2018-11-25T01:02:32.315Z,100401.48
2018-11-25T01:05:06.319Z,100408.69
2018-11-25T01:07:40.341Z,100407.45
2018-11-25T01:10:15.792Z,100402.38
2018-11-25T01:12:49.900Z,100404.49
2018-11-25T01:15:23.784Z,100401.11
2018-11-25T01:17:57.698Z,100406.16
2018-11-25T01:20:31.980Z,100410.82
2018-11-25T01:23:06.526Z,100410.83
2018-11-25T01:25:40.571Z,100409.13
2018-11-25T01:28:14.468Z,100409.13
2018-11-25T01:30:48.984Z,100406.59
2018-11-25T01:33:24.129Z,100411.19
2018-11-25T01:35:58.072Z,100408.22
2018-11-25T01:38:32.044Z,100407.03
2018-11-25T01:41:06.906Z,100404.05
2018-11-25T01:43:40.832Z,100398.12
2018-11-25T01:46:14.676Z,100396.41
2018-11-25T01:48:48.818Z,100400.67
2018-11-25T01:51:23.325Z,100402.38
2018-11-25T01:53:57.464Z,100400.67
2018-11-25T01:56:31.576Z,100397.33
2018-11-25T01:59:05.446Z,100398.15
2018-11-25T02:01:39.414Z,100391.34
2018-11-25T02:04:14.791Z,100386.72
2018-11-25T02:06:48.749Z,100388.47
2018-11-25T02:09:22.547Z,100393.08
2018-11-25T02:11:57.273Z,100386.77
2018-11-25T02:14:31.506Z,100383.39
2018-11-25T02:17:05.393Z,100378.29
2018-11-25T02:19:39.253Z,100374.95
2018-11-25T02:22:13.099Z,100371.97
2018-11-25T02:24:46.975Z,100374.95
2018-11-25T02:27:20.859Z,100372.37
2018-11-25T02:29:54.735Z,100373.25
2018-11-25T02:32:28.637Z,100365.16
2018-11-25T02:35:02.510Z,100364.75
2018-11-25T02:37:36.563Z,100366.47
2018-11-25T02:40:11.730Z,100361.79
2018-11-25T02:42:45.805Z,100358.00
2018-11-25T02:45:20.264Z,100357.11
2018-11-25T02:47:54.166Z,100361.86
2018-11-25T02:50:31.435Z,100358.80
2018-11-25T02:53:06.999Z,100358.78
2018-11-25T02:55:40.834Z,100365.13
2018-11-25T02:58:14.788Z,100367.65
2018-11-25T03:00:48.676Z,100362.58
2018-11-25T03:03:22.560Z,100365.50
2018-11-25T03:05:56.413Z,100365.13
2018-11-25T03:08:30.294Z,100364.25
2018-11-25T03:11:04.167Z,100368.50
2018-11-25T03:13:38.093Z,100368.91
2018-11-25T03:16:11.936Z,100362.15
2018-11-25T03:18:45.897Z,100367.22
2018-11-25T03:21:19.742Z,100366.38
2018-11-25T03:23:53.596Z,100369.43
2018-11-25T03:26:27.431Z,100369.90
2018-11-25T03:29:01.602Z,100369.46
2018-11-25T03:31:35.431Z,100366.91
2018-11-25T03:34:09.300Z,100362.61
2018-11-25T03:36:43.135Z,100358.81
2018-11-25T03:39:16.984Z,100363.45
2018-11-25T03:41:50.816Z,100361.31
2018-11-25T03:44:24.701Z,100361.32
2018-11-25T03:46:58.680Z,100367.25
2018-11-25T03:49:32.602Z,100359.22
2018-11-25T03:52:06.741Z,100362.13
2018-11-25T03:54:40.802Z,100357.50
2018-11-25T03:57:14.692Z,100355.89
2018-11-25T03:59:48.680Z,100360.88
2018-11-25T04:02:22.502Z,100362.58
2018-11-25T04:04:56.363Z,100360.45
2018-11-25T04:07:30.173Z,100361.72
2018-11-25T04:10:04.334Z,100364.27
2018-11-25T04:12:38.203Z,100361.27
2018-11-25T04:15:17.045Z,100360.80
2018-11-25T04:17:51.006Z,100363.81
2018-11-25T04:20:24.893Z,100361.30
2018-11-25T04:22:58.740Z,100364.27
2018-11-25T04:25:32.740Z,100357.45
2018-11-25T04:28:06.610Z,100354.16
2018-11-25T04:30:40.525Z,100358.73
2018-11-25T04:33:14.477Z,100354.53
2018-11-25T04:35:48.451Z,100355.42
2018-11-25T04:38:22.306Z,100358.38
2018-11-25T04:40:56.190Z,100359.18
2018-11-25T04:43:30.039Z,100361.20
2018-11-25T04:46:03.993Z,100354.16
2018-11-25T04:48:37.825Z,100360.02
2018-11-25T04:51:11.784Z,100354.56
2018-11-25T04:53:45.686Z,100354.54
2018-11-25T04:56:19.529Z,100357.14
2018-11-25T04:58:53.371Z,100352.86
2018-11-25T05:01:27.317Z,100358.37
2018-11-25T05:04:01.182Z,100355.86
2018-11-25T05:06:35.063Z,100349.05
2018-11-25T05:09:09.512Z,100343.53
2018-11-25T05:11:43.478Z,100349.03
2018-11-25T05:14:17.300Z,100340.18
2018-11-25T05:16:51.207Z,100345.99
2018-11-25T05:19:25.037Z,100347.23
2018-11-25T05:21:58.923Z,100348.59
2018-11-25T05:24:32.859Z,100355.35
2018-11-25T05:27:07.068Z,100354.47
2018-11-25T05:29:40.926Z,100353.66
2018-11-25T05:32:14.787Z,100354.97
2018-11-25T05:34:48.733Z,100353.70
2018-11-25T05:37:22.601Z,100356.64
2018-11-25T05:39:56.424Z,100361.25
2018-11-25T05:42:30.271Z,100351.51
2018-11-25T05:45:04.227Z,100351.98
2018-11-25T05:47:38.295Z,100354.54
2018-11-25T05:50:14.361Z,100350.68
2018-11-25T05:52:48.350Z,100358.73
2018-11-25T05:55:22.199Z,100353.27
2018-11-25T05:57:56.130Z,100359.62
2018-11-25T06:00:33.913Z,100355.39
2018-11-25T06:03:07.792Z,100354.55
2018-11-25T06:05:41.704Z,100352.42
2018-11-25T06:08:15.550Z,100352.02
2018-11-25T06:10:49.392Z,100356.59
2018-11-25T06:13:23.257Z,100358.28
2018-11-25T06:15:57.070Z,100359.86
2018-11-25T06:18:31.111Z,100361.59
2018-11-25T06:21:04.961Z,100357.82
2018-11-25T06:23:39.040Z,100359.89
2018-11-25T06:26:12.863Z,100370.45
2018-11-25T06:28:46.769Z,100363.66
2018-11-25T06:31:20.745Z,100370.45
2018-11-25T06:33:54.995Z,100377.20
2018-11-25T06:36:28.896Z,100375.57
2018-11-25T06:39:02.987Z,100373.88
2018-11-25T06:41:36.842Z,100378.97
2018-11-25T06:44:10.723Z,100371.27
2018-11-25T06:46:44.589Z,100370.56
2018-11-25T06:49:18.538Z,100368.84
2018-11-25T06:51:52.432Z,100371.33
2018-11-25T06:54:26.533Z,100376.38
2018-11-25T06:57:00.371Z,100372.24
2018-11-25T06:59:34.275Z,100375.98
2018-11-25T07:02:08.185Z,100370.41
2018-11-25T07:04:42.096Z,100377.20
2018-11-25T07:07:15.962Z,100383.64
2018-11-25T07:09:50.329Z,100389.53
2018-11-25T07:12:24.178Z,100384.91
2018-11-25T07:14:58.088Z,100394.27
2018-11-25T07:17:32.098Z,100394.65
2018-11-25T07:20:06.681Z,100395.86
2018-11-25T07:22:40.552Z,100393.38
2018-11-25T07:25:20.582Z,100401.31
2018-11-25T07:27:54.469Z,100406.39
2018-11-25T07:30:29.078Z,100397.98
2018-11-25T07:33:02.965Z,100402.95
2018-11-25T07:35:36.924Z,100402.14
2018-11-25T07:38:10.837Z,100406.72
2018-11-25T07:40:44.820Z,100403.81
2018-11-25T07:43:18.650Z,100406.73
2018-11-25T07:45:52.516Z,100409.67
2018-11-25T07:48:26.370Z,100409.19
2018-11-25T07:51:00.297Z,100410.90
2018-11-25T07:53:34.151Z,100407.72
2018-11-25T07:56:08.060Z,100411.46
2018-11-25T07:58:41.990Z,100413.13
2018-11-25T08:01:15.923Z,100412.59
2018-11-25T08:03:49.756Z,100416.04
2018-11-25T08:06:23.898Z,100415.70
2018-11-25T08:08:57.724Z,100409.69
2018-11-25T08:11:31.620Z,100414.70
2018-11-25T08:14:05.605Z,100412.94
2018-11-25T08:16:39.587Z,100414.27
2018-11-25T08:19:14.298Z,100403.25
2018-11-25T08:21:48.260Z,100412.94
2018-11-25T08:24:22.167Z,100410.01
2018-11-25T08:26:56.021Z,100417.59
2018-11-25T08:29:29.860Z,100418.88
2018-11-25T08:32:03.766Z,100415.43
2018-11-25T08:34:37.626Z,100420.88
2018-11-25T08:37:11.525Z,100418.90
2018-11-25T08:39:45.613Z,100421.42
2018-11-25T08:42:20.656Z,100420.95
2018-11-25T08:44:54.581Z,100417.55
2018-11-25T08:47:28.586Z,100425.50
2018-11-25T08:50:02.442Z,100424.58
2018-11-25T08:52:36.352Z,100419.00
2018-11-25T08:55:12.442Z,100413.26
2018-11-25T08:57:46.464Z,100422.05
2018-11-25T09:00:22.099Z,100413.20
2018-11-25T09:02:57.013Z,100421.22
2018-11-25T09:05:30.986Z,100408.59
2018-11-25T09:08:04.919Z,100414.97
2018-11-25T09:10:38.738Z,100424.13
2018-11-25T09:13:12.603Z,100426.56
2018-11-25T09:15:46.428Z,100417.35
2018-11-25T09:18:20.443Z,100418.53
2018-11-25T09:20:54.302Z,100424.16
2018-11-25T09:23:28.167Z,100434.68
2018-11-25T09:26:02.015Z,100432.14
2018-11-25T09:28:36.031Z,100429.78
2018-11-25T09:31:09.843Z,100435.20
2018-11-25T09:33:43.696Z,100431.92
2018-11-25T09:36:17.539Z,100445.34
2018-11-25T09:38:51.451Z,100442.66
2018-11-25T09:41:25.350Z,100440.96
2018-11-25T09:43:59.182Z,100440.95
2018-11-25T09:46:33.024Z,100441.30
2018-11-25T09:49:07.176Z,100441.76
2018-11-25T09:51:41.094Z,100442.64
2018-11-25T09:54:15.023Z,100444.73
2018-11-25T09:56:48.869Z,100447.24
2018-11-25T09:59:22.747Z,100441.99
2018-11-25T10:01:56.579Z,100451.20
2018-11-25T10:04:30.460Z,100448.16
2018-11-25T10:07:04.269Z,100451.07
2018-11-25T10:09:38.231Z,100449.54
2018-11-25T10:12:12.075Z,100435.58
2018-11-25T10:14:46.074Z,100428.77
2018-11-25T10:17:20.035Z,100446.86
2018-11-25T10:19:53.987Z,100438.24
2018-11-25T10:22:27.853Z,100445.36
2018-11-25T10:25:01.772Z,100441.05
2018-11-25T10:27:35.601Z,100442.84
2018-11-25T10:30:18.033Z,100443.97
2018-11-25T10:32:54.910Z,100443.94
2018-11-25T10:35:28.953Z,100443.94
2018-11-25T10:38:02.810Z,100445.97
2018-11-25T10:40:36.678Z,100440.44
2018-11-25T10:43:10.615Z,100434.95
2018-11-25T10:45:44.511Z,100436.77
2018-11-25T10:48:18.323Z,100433.41
2018-11-25T10:50:52.212Z,100437.45
2018-11-25T10:53:26.354Z,100432.87
2018-11-25T10:56:01.062Z,100437.48
2018-11-25T10:58:35.070Z,100432.31
2018-11-25T11:01:13.959Z,100434.36
2018-11-25T11:03:53.023Z,100424.22
2018-11-25T11:06:32.621Z,100428.87
2018-11-25T11:09:08.393Z,100432.39
2018-11-25T11:11:42.614Z,100415.86
2018-11-25T11:14:16.580Z,100418.88
2018-11-25T11:16:53.891Z,100433.30
2018-11-25T11:19:24.595Z,100422.27
2018-11-25T11:21:58.561Z,100422.26
2018-11-25T11:24:32.528Z,100428.56
2018-11-25T11:27:06.551Z,100429.42
2018-11-25T11:29:40.459Z,100425.64
2018-11-25T11:32:15.376Z,100427.74
2018-11-25T11:34:49.320Z,100428.97
2018-11-25T11:37:23.332Z,100423.08
2018-11-25T11:39:57.247Z,100423.77
2018-11-25T11:42:31.134Z,100430.47
2018-11-25T11:45:06.494Z,100424.02
2018-11-25T11:47:42.580Z,100426.47
2018-11-25T11:50:17.919Z,100422.39
2018-11-25T11:52:51.832Z,100422.04
2018-11-25T11:55:25.722Z,100422.83
2018-11-25T11:57:59.635Z,100422.12
2018-11-25T12:00:33.600Z,100428.03
2018-11-25T12:03:07.621Z,100429.85
2018-11-25T12:05:41.520Z,100422.57
2018-11-25T12:08:15.476Z,100426.13
2018-11-25T12:10:49.325Z,100421.30
2018-11-25T12:13:23.726Z,100431.51
2018-11-25T12:15:58.735Z,100426.61
2018-11-25T12:18:32.605Z,100426.96
2018-11-25T12:21:06.853Z,100428.17
2018-11-25T12:23:40.711Z,100424.36
2018-11-25T12:26:14.685Z,100422.23
2018-11-25T12:28:48.547Z,100420.95
2018-11-25T12:31:22.556Z,100420.77
2018-11-25T12:33:56.407Z,100418.55
2018-11-25T12:36:30.277Z,100412.55
2018-11-25T12:39:04.807Z,100416.39
2018-11-25T12:41:40.734Z,100410.27
2018-11-25T12:44:17.008Z,100417.95
2018-11-25T12:46:50.878Z,100421.30
2018-11-25T12:49:24.831Z,100420.34
2018-11-25T12:51:58.786Z,100414.83
2018-11-25T12:54:32.861Z,100424.66
2018-11-25T12:57:07.057Z,100422.80
2018-11-25T12:59:41.022Z,100414.11
2018-11-25T13:02:14.893Z,100401.65
2018-11-25T13:04:48.846Z,100404.66
2018-11-25T13:07:22.989Z,100405.40
2018-11-25T13:09:56.886Z,100393.16
2018-11-25T13:12:30.717Z,100395.59
2018-11-25T13:15:04.646Z,100394.23
2018-11-25T13:17:38.577Z,100391.28
2018-11-25T13:20:13.685Z,100391.91
2018-11-25T13:22:47.678Z,100381.11
2018-11-25T13:25:21.682Z,100375.89
2018-11-25T13:27:55.558Z,100373.66
2018-11-25T13:30:31.081Z,100380.91
2018-11-25T13:33:05.395Z,100369.34
2018-11-25T13:35:40.552Z,100373.02
2018-11-25T13:38:15.741Z,100365.95
2018-11-25T13:40:49.801Z,100367.99
2018-11-25T13:43:23.766Z,100368.16
2018-11-25T13:45:57.798Z,100375.08
2018-11-25T13:48:31.631Z,100374.02
2018-11-25T13:51:07.046Z,100377.70
2018-11-25T13:53:40.940Z,100376.69
2018-11-25T13:56:14.924Z,100382.92
2018-11-25T13:58:48.761Z,100378.59
2018-11-25T14:01:22.650Z,100381.50
2018-11-25T14:03:56.615Z,100392.10
2018-11-25T14:06:30.592Z,100399.14
2018-11-25T14:09:06.643Z,100391.61
2018-11-25T14:11:40.599Z,100398.17
2018-11-25T14:14:14.450Z,100396.49
2018-11-25T14:16:48.443Z,100394.44
2018-11-25T14:19:22.288Z,100395.16
2018-11-25T14:21:56.224Z,100399.41
2018-11-25T14:24:30.079Z,100396.30
2018-11-25T14:27:04.553Z,100402.81
2018-11-25T14:29:38.404Z,100399.52
2018-11-25T14:32:12.454Z,100403.71
2018-11-25T14:34:46.291Z,100401.25
2018-11-25T14:37:20.330Z,100398.17
2018-11-25T14:39:54.340Z,100387.30
2018-11-25T14:42:28.227Z,100405.30
2018-11-25T14:45:02.514Z,100405.73
2018-11-25T14:47:36.723Z,100403.54
2018-11-25T14:50:12.920Z,100398.92
2018-11-25T14:52:48.308Z,100400.44
2018-11-25T14:55:22.287Z,100403.39
2018-11-25T14:57:56.640Z,100410.39
2018-11-25T15:00:31.250Z,100408.25
2018-11-25T15:03:06.712Z,100409.98
2018-11-25T15:05:42.854Z,100408.59
2018-11-25T15:08:18.660Z,100405.90
2018-11-25T15:10:52.728Z,100410.20
2018-11-25T15:13:26.695Z,100408.84
2018-11-25T15:16:01.772Z,100414.73
2018-11-25T15:18:35.798Z,100418.64
2018-11-25T15:21:10.716Z,100415.81
2018-11-25T15:23:44.677Z,100417.11
2018-11-25T15:26:19.278Z,100422.28
2018-11-25T15:28:53.327Z,100424.02
2018-11-25T15:31:27.400Z,100414.86
2018-11-25T15:34:01.370Z,100421.13
2018-11-25T15:36:35.286Z,100425.06
2018-11-25T15:39:11.529Z,100417.74
2018-11-25T15:41:45.411Z,100416.44
2018-11-25T15:44:19.354Z,100424.28
2018-11-25T15:46:53.184Z,100418.61
2018-11-25T15:49:27.129Z,100424.91
2018-11-25T15:52:01.007Z,100427.54
2018-11-25T15:54:34.919Z,100428.34
2018-11-25T15:57:08.847Z,100429.95
2018-11-25T15:59:42.997Z,100422.48
2018-11-25T16:02:16.974Z,100425.58
2018-11-25T16:04:50.995Z,100421.09
2018-11-25T16:07:24.916Z,100427.02
2018-11-25T16:09:59.065Z,100417.24
2018-11-25T16:12:32.956Z,100418.52
2018-11-25T16:15:10.478Z,100424.34
2018-11-25T16:17:44.440Z,100419.75
2018-11-25T16:20:23.493Z,100425.40
2018-11-25T16:23:00.900Z,100431.27
2018-11-25T16:25:43.954Z,100422.36
2018-11-25T16:28:22.099Z,100433.41
2018-11-25T16:31:13.187Z,100435.02
2018-11-25T16:33:47.199Z,100434.45
2018-11-25T16:36:21.219Z,100433.25
2018-11-25T16:38:55.180Z,100436.93
2018-11-25T16:41:32.643Z,100445.42
2018-11-25T16:44:07.348Z,100440.02
2018-11-25T16:46:41.893Z,100442.02
2018-11-25T16:49:15.853Z,100442.27
2018-11-25T16:51:49.714Z,100446.52
2018-11-25T16:54:23.807Z,100432.84
2018-11-25T16:56:57.722Z,100437.46
2018-11-25T16:59:31.812Z,100438.23
2018-11-25T17:02:05.976Z,100440.67
2018-11-25T17:04:39.849Z,100440.61
2018-11-25T17:07:13.810Z,100438.91
2018-11-25T17:09:47.682Z,100439.97
2018-11-25T17:12:21.570Z,100437.46
2018-11-25T17:14:55.415Z,100434.85
2018-11-25T17:17:29.243Z,100435.32
2018-11-25T17:20:03.141Z,100440.09
2018-11-25T17:22:37.099Z,100438.48
2018-11-25T17:25:12.317Z,100437.46
2018-11-25T17:27:46.224Z,100434.85
2018-11-25T17:30:20.982Z,100438.09
2018-11-25T17:32:55.059Z,100437.73
2018-11-25T17:35:30.363Z,100438.60
2018-11-25T17:38:04.318Z,100442.48
2018-11-25T17:40:38.696Z,100436.13
2018-11-25T17:43:14.962Z,100444.56
2018-11-25T17:45:48.914Z,100442.91
2018-11-25T17:48:22.879Z,100447.27
2018-11-25T17:50:57.617Z,100450.11
2018-11-25T17:53:31.647Z,100452.91
2018-11-25T17:56:06.236Z,100454.55
2018-11-25T17:58:40.347Z,100453.80
2018-11-25T18:01:14.288Z,100457.20
2018-11-25T18:03:48.550Z,100458.83
2018-11-25T18:06:22.738Z,100463.02
2018-11-25T18:08:57.187Z,100459.05
2018-11-25T18:11:32.488Z,100461.59
2018-11-25T18:14:07.890Z,100468.50
2018-11-25T18:16:41.847Z,100467.84
2018-11-25T18:19:19.433Z,100461.28
2018-11-25T18:22:03.762Z,100465.90
2018-11-25T18:24:37.632Z,100459.60
2018-11-25T18:27:11.881Z,100454.83
2018-11-25T18:29:45.800Z,100468.04
2018-11-25T18:32:19.731Z,100466.36
2018-11-25T18:34:54.761Z,100462.86
2018-11-25T18:37:28.647Z,100473.24
2018-11-25T18:40:02.584Z,100468.84
2018-11-25T18:42:36.608Z,100461.25
2018-11-25T18:45:13.218Z,100464.56
2018-11-25T18:47:48.206Z,100473.19
2018-11-25T18:50:22.925Z,100467.37
2018-11-25T18:52:56.771Z,100479.97
2018-11-25T18:55:29.285Z,100469.31
2018-11-25T18:58:03.271Z,100476.73
2018-11-25T19:01:41.020Z,100476.07
2018-11-25T19:04:14.879Z,100473.65
2018-11-25T19:06:49.561Z,100483.41
2018-11-25T19:09:23.663Z,100485.84
2018-11-25T19:11:57.584Z,100483.91
2018-11-25T19:14:31.444Z,100475.73
2018-11-25T19:17:05.783Z,100476.28
2018-11-25T19:19:39.776Z,100481.09
2018-11-25T19:22:14.689Z,100478.44
2018-11-25T19:24:48.913Z,100476.70
2018-11-25T19:27:23.084Z,100475.41
2018-11-25T19:29:57.164Z,100481.73
2018-11-25T19:32:30.991Z,100478.70
2018-11-25T19:35:05.216Z,100480.33
2018-11-25T19:37:39.066Z,100476.39
2018-11-25T19:40:15.274Z,100484.14
2018-11-25T19:42:49.280Z,100481.47
2018-11-25T19:45:27.249Z,100479.41
2018-11-25T19:48:01.245Z,100482.88
2018-11-25T19:50:36.384Z,100478.47
2018-11-25T19:53:11.446Z,100487.87
2018-11-25T19:55:46.771Z,100488.69
2018-11-25T19:58:20.805Z,100477.27
2018-11-25T20:00:56.032Z,100497.08
2018-11-25T20:03:30.894Z,100495.98
2018-11-25T20:06:05.072Z,100489.94
2018-11-25T20:08:39.299Z,100494.33
2018-11-25T20:11:13.296Z,100492.60
2018-11-25T20:13:47.353Z,100479.46
2018-11-25T20:16:26.327Z,100487.55
2018-11-25T20:19:00.189Z,100485.36
2018-11-25T20:21:38.989Z,100486.60
2018-11-25T20:24:12.880Z,100487.49
2018-11-25T20:26:51.986Z,100481.09
2018-11-25T20:29:26.648Z,100486.55
2018-11-25T20:32:06.274Z,100496.84
2018-11-25T20:34:40.231Z,100507.44
2018-11-25T20:37:15.775Z,100510.77
2018-11-25T20:39:49.862Z,100515.45
2018-11-25T20:42:24.339Z,100517.97
2018-11-25T20:44:59.228Z,100525.16
2018-11-25T20:47:33.204Z,100526.08
2018-11-25T20:50:08.270Z,100529.38
2018-11-25T20:52:47.367Z,100534.59
2018-11-25T20:55:21.326Z,100518.56
2018-11-25T20:57:55.324Z,100518.59
2018-11-25T21:00:30.428Z,100513.66
2018-11-25T21:03:04.474Z,100517.31
2018-11-25T21:05:38.447Z,100520.69
2018-11-25T21:08:12.278Z,100509.23
2018-11-25T21:10:46.195Z,100513.44
2018-11-25T21:13:20.039Z,100502.05
2018-11-25T21:15:53.905Z,100507.13
2018-11-25T21:18:27.758Z,100505.77
2018-11-25T21:21:01.628Z,100510.50
2018-11-25T21:23:35.469Z,100504.54
2018-11-25T21:26:09.567Z,100507.56
2018-11-25T21:28:43.404Z,100512.30
2018-11-25T21:31:17.362Z,100503.06
2018-11-25T21:33:51.202Z,100496.25
2018-11-25T21:36:25.149Z,100491.05
2018-11-25T21:38:58.997Z,100494.92
2018-11-25T21:41:32.849Z,100485.71
2018-11-25T21:44:07.443Z,100494.55
2018-11-25T21:46:41.383Z,100503.51
2018-11-25T21:49:15.244Z,100502.22
2018-11-25T21:51:49.136Z,100500.08
2018-11-25T21:54:23.070Z,100508.95
2018-11-25T21:56:57.574Z,100511.80
2018-11-25T21:59:30.884Z,100510.19
2018-11-25T22:02:04.778Z,100507.58
2018-11-25T22:04:38.619Z,100501.78
2018-11-25T22:07:12.640Z,100512.77
2018-11-25T22:09:46.470Z,100512.70
2018-11-25T22:12:20.324Z,100506.44
2018-11-25T22:14:54.246Z,100508.59
2018-11-25T22:17:28.272Z,100507.23
2018-11-25T22:20:02.111Z,100513.97
2018-11-25T22:22:36.127Z,100522.41
2018-11-25T22:25:14.025Z,100523.73
2018-11-25T22:27:48.015Z,100524.13
2018-11-25T22:30:23.256Z,100525.80
2018-11-25T22:32:57.192Z,100514.12
2018-11-25T22:35:37.627Z,100522.94
2018-11-25T22:38:11.575Z,100520.02
2018-11-25T22:40:45.408Z,100517.78
2018-11-25T22:43:19.326Z,100520.84
2018-11-25T22:45:53.195Z,100524.66
2018-11-25T22:48:27.173Z,100533.03
2018-11-25T22:51:01.061Z,100533.79
2018-11-25T22:53:35.136Z,100534.28
2018-11-25T22:56:08.981Z,100532.20
2018-11-25T22:58:42.930Z,100538.60
2018-11-25T23:01:16.795Z,100534.84
2018-11-25T23:04:02.421Z,100533.61
2018-11-25T23:06:47.331Z,100519.70
2018-11-25T23:09:21.307Z,100522.16
2018-11-25T23:11:55.145Z,100526.72
2018-11-25T23:14:29.041Z,100516.27
2018-11-25T23:17:03.032Z,100515.49
2018-11-25T23:19:37.933Z,100519.64
2018-11-25T23:22:11.794Z,100504.13
2018-11-25T23:24:45.932Z,100518.37
2018-11-25T23:27:19.752Z,100518.88
2018-11-25T23:29:53.807Z,100518.75
2018-11-25T23:32:27.638Z,100525.94
2018-11-25T23:35:01.508Z,100521.73
2018-11-25T23:37:35.338Z,100527.20
2018-11-25T23:40:10.426Z,100521.28
2018-11-25T23:42:44.386Z,100516.83
2018-11-25T23:45:18.393Z,100517.57
2018-11-25T23:47:52.205Z,100521.45
2018-11-25T23:50:26.146Z,100530.70
2018-11-25T23:53:00.133Z,100531.19
2018-11-25T23:55:34.055Z,100536.77
2018-11-25T23:58:07.916Z,100539.66
